createdAt,value
2018-06-20T00:00:39.239Z,15.40
2018-06-20T00:03:07.644Z,15.50
2018-06-20T00:05:36.051Z,15.50
2018-06-20T00:08:04.511Z,15.50
2018-06-20T00:10:32.891Z,15.50
2018-06-20T00:13:01.300Z,15.40
2018-06-20T00:15:29.691Z,15.30
2018-06-20T00:17:58.116Z,15.20
2018-06-20T00:20:26.533Z,15.20
2018-06-20T00:22:54.992Z,15.10
2018-06-20T00:25:23.371Z,15.00
2018-06-20T00:27:51.804Z,15.00
2018-06-20T00:30:20.184Z,15.10
2018-06-20T00:32:48.600Z,15.10
2018-06-20T00:35:17.011Z,15.10
2018-06-20T00:37:45.436Z,14.90
2018-06-20T00:40:13.847Z,14.80
2018-06-20T00:42:42.317Z,14.80
2018-06-20T00:45:10.716Z,14.80
2018-06-20T00:47:39.255Z,14.90
2018-06-20T00:50:07.620Z,14.90
2018-06-20T00:52:36.071Z,15.00
2018-06-20T00:55:04.468Z,15.00
2018-06-20T00:57:32.873Z,15.10
2018-06-20T01:00:01.277Z,15.10
2018-06-20T01:02:29.692Z,15.00
2018-06-20T01:04:58.103Z,15.00
2018-06-20T01:07:26.499Z,15.00
2018-06-20T01:09:54.908Z,15.10
2018-06-20T01:12:23.292Z,15.10
2018-06-20T01:14:51.695Z,15.10
2018-06-20T01:17:20.081Z,15.10
2018-06-20T01:19:48.487Z,15.00
2018-06-20T01:22:16.885Z,14.90
2018-06-20T01:24:46.287Z,14.80
2018-06-20T01:27:14.671Z,14.80
2018-06-20T01:29:43.075Z,14.80
2018-06-20T01:32:11.473Z,14.80
2018-06-20T01:34:39.884Z,14.80
2018-06-20T01:37:08.268Z,14.80
2018-06-20T01:39:36.668Z,14.70
2018-06-20T01:42:05.073Z,14.60
2018-06-20T01:44:33.491Z,14.40
2018-06-20T01:47:01.883Z,14.30
2018-06-20T01:49:30.284Z,14.20
2018-06-20T01:51:58.671Z,14.20
2018-06-20T01:56:55.275Z,14.30
2018-06-20T01:59:23.666Z,14.30
2018-06-20T02:01:52.066Z,14.40
2018-06-20T02:04:20.472Z,14.50
2018-06-20T02:06:48.899Z,14.50
2018-06-20T02:09:17.308Z,14.50
2018-06-20T02:11:45.716Z,14.50
2018-06-20T02:14:14.107Z,14.50
2018-06-20T02:16:42.532Z,14.50
2018-06-20T02:19:10.924Z,14.60
2018-06-20T02:21:39.332Z,14.50
2018-06-20T02:24:07.709Z,14.50
2018-06-20T02:26:36.120Z,14.50
2018-06-20T02:29:04.515Z,14.40
2018-06-20T02:31:32.924Z,14.30
2018-06-20T02:34:01.313Z,14.20
2018-06-20T02:36:33.080Z,14.20
2018-06-20T02:39:02.752Z,14.20
2018-06-20T02:41:31.151Z,14.30
2018-06-20T02:43:59.540Z,14.20
2018-06-20T02:46:27.936Z,14.20
2018-06-20T02:48:56.309Z,14.20
2018-06-20T02:51:24.739Z,14.20
2018-06-20T02:53:53.125Z,14.20
2018-06-20T02:56:21.529Z,14.20
2018-06-20T02:58:49.939Z,14.20
2018-06-20T03:01:18.332Z,14.30
2018-06-20T03:03:46.816Z,14.30
2018-06-20T03:06:15.229Z,14.30
2018-06-20T03:08:43.800Z,14.20
2018-06-20T03:11:12.225Z,14.10
2018-06-20T03:13:40.652Z,14.00
2018-06-20T03:16:09.056Z,14.10
2018-06-20T03:18:37.482Z,14.10
2018-06-20T03:21:05.912Z,14.10
2018-06-20T03:23:34.332Z,14.10
2018-06-20T03:26:02.749Z,14.10
2018-06-20T03:28:31.192Z,14.10
2018-06-20T03:30:59.608Z,14.10
2018-06-20T03:33:28.031Z,14.10
2018-06-20T03:35:56.436Z,14.20
2018-06-20T03:38:24.858Z,14.10
2018-06-20T03:40:53.255Z,14.00
2018-06-20T03:45:49.771Z,14.00
2018-06-20T03:48:18.171Z,14.10
2018-06-20T03:50:46.616Z,14.20
2018-06-20T03:53:14.999Z,14.40
2018-06-20T03:55:43.467Z,14.50
2018-06-20T03:58:11.881Z,14.60
2018-06-20T04:00:40.276Z,14.70
2018-06-20T04:03:08.659Z,14.80
2018-06-20T04:05:37.103Z,15.00
2018-06-20T04:08:05.555Z,15.00
2018-06-20T04:10:34.003Z,15.10
2018-06-20T04:13:02.408Z,15.00
2018-06-20T04:15:30.827Z,15.00
2018-06-20T04:17:59.231Z,15.00
2018-06-20T04:20:27.655Z,15.10
2018-06-20T04:22:56.055Z,15.10
2018-06-20T04:25:24.712Z,15.20
2018-06-20T04:27:53.112Z,15.30
2018-06-20T04:30:21.532Z,15.40
2018-06-20T04:32:49.944Z,15.40
2018-06-20T04:35:18.359Z,15.50
2018-06-20T04:40:14.965Z,15.70
2018-06-20T04:42:43.368Z,15.80
2018-06-20T04:45:11.788Z,16.00
2018-06-20T04:47:40.187Z,16.30
2018-06-20T04:50:08.596Z,16.50
2018-06-20T04:52:38.297Z,16.80
2018-06-20T04:55:06.780Z,17.40
2018-06-20T04:57:35.215Z,17.70
2018-06-20T05:00:03.716Z,17.80
2018-06-20T05:02:32.136Z,17.80
2018-06-20T05:05:00.553Z,17.70
2018-06-20T05:07:28.981Z,17.60
2018-06-20T05:09:57.380Z,17.50
2018-06-20T05:12:25.799Z,17.30
2018-06-20T05:14:54.200Z,17.20
2018-06-20T05:17:22.726Z,17.20
2018-06-20T05:19:51.133Z,17.20
2018-06-20T05:22:19.560Z,17.30
2018-06-20T05:24:47.955Z,17.40
2018-06-20T05:27:16.399Z,17.50
2018-06-20T05:29:44.792Z,17.60
2018-06-20T05:32:13.211Z,17.80
2018-06-20T05:34:41.611Z,17.90
2018-06-20T05:37:10.023Z,18.10
2018-06-20T05:39:38.434Z,18.30
2018-06-20T05:42:06.851Z,18.50
2018-06-20T05:44:35.257Z,18.70
2018-06-20T05:47:03.740Z,18.90
2018-06-20T05:49:32.148Z,19.10
2018-06-20T05:52:00.615Z,19.50
2018-06-20T05:54:29.055Z,19.90
2018-06-20T05:56:57.475Z,20.30
2018-06-20T05:59:32.579Z,20.70
2018-06-20T06:02:01.005Z,21.20
2018-06-20T06:04:29.471Z,21.60
2018-06-20T06:07:04.227Z,21.90
2018-06-20T06:09:32.699Z,22.00
2018-06-20T06:12:01.122Z,23.10
2018-06-20T06:14:29.551Z,24.40
2018-06-20T06:16:57.998Z,25.40
2018-06-20T06:19:26.365Z,26.80
2018-06-20T06:21:54.780Z,28.00
2018-06-20T06:24:23.161Z,28.90
2018-06-20T06:26:51.543Z,29.60
2018-06-20T06:29:19.951Z,30.20
2018-06-20T06:31:48.335Z,30.70
2018-06-20T06:34:16.731Z,31.20
2018-06-20T06:36:45.126Z,31.50
2018-06-20T06:39:13.543Z,31.70
2018-06-20T06:41:41.927Z,31.90
2018-06-20T06:44:10.333Z,32.50
2018-06-20T06:46:38.717Z,32.80
2018-06-20T06:49:07.127Z,32.60
2018-06-20T06:51:35.523Z,32.10
2018-06-20T06:54:03.942Z,31.60
2018-06-20T06:56:32.328Z,31.30
2018-06-20T06:59:00.735Z,30.80
2018-06-20T07:01:29.124Z,30.10
2018-06-20T07:06:25.671Z,29.80
2018-06-20T07:08:54.108Z,29.80
2018-06-20T07:11:22.500Z,29.80
2018-06-20T07:13:50.928Z,30.00
2018-06-20T07:16:19.339Z,30.20
2018-06-20T07:18:47.755Z,30.50
2018-06-20T07:21:16.148Z,31.10
2018-06-20T07:23:44.564Z,31.20
2018-06-20T07:26:12.968Z,31.10
2018-06-20T07:28:41.396Z,30.80
2018-06-20T07:31:09.792Z,30.90
2018-06-20T07:33:38.219Z,30.80
2018-06-20T07:36:06.653Z,30.90
2018-06-20T07:38:35.065Z,30.90
2018-06-20T07:41:03.472Z,30.80
2018-06-20T07:43:31.914Z,30.70
2018-06-20T07:46:00.315Z,30.50
2018-06-20T07:48:28.731Z,30.40
2018-06-20T07:50:57.129Z,30.40
2018-06-20T07:53:25.549Z,30.50
2018-06-20T07:55:53.947Z,30.80
2018-06-20T07:58:27.684Z,31.10
2018-06-20T08:01:01.403Z,31.40
2018-06-20T08:03:35.091Z,31.70
2018-06-20T08:07:10.760Z,31.80
2018-06-20T08:09:44.469Z,31.70
2018-06-20T08:12:18.184Z,31.30
2018-06-20T08:15:53.883Z,31.20
2018-06-20T08:18:27.607Z,31.10
2018-06-20T08:20:56.040Z,31.50
2018-06-20T08:23:24.452Z,31.70
2018-06-20T08:25:52.958Z,31.80
2018-06-20T08:28:21.273Z,31.80
2018-06-20T08:30:49.684Z,31.70
2018-06-20T08:33:18.066Z,31.80
2018-06-20T08:35:46.478Z,32.20
2018-06-20T08:38:14.873Z,32.70
2018-06-20T08:40:43.271Z,32.80
2018-06-20T08:43:11.656Z,32.20
2018-06-20T08:45:40.060Z,31.70
2018-06-20T08:48:08.451Z,31.60
2018-06-20T08:50:37.123Z,31.70
2018-06-20T08:53:05.594Z,31.50
2018-06-20T08:58:02.107Z,31.20
2018-06-20T09:00:35.939Z,31.10
2018-06-20T09:03:04.399Z,31.40
2018-06-20T09:05:38.322Z,31.90
2018-06-20T09:08:12.102Z,31.90
2018-06-20T09:10:45.809Z,31.30
2018-06-20T09:13:19.532Z,31.00
2018-06-20T09:15:53.320Z,30.60
2018-06-20T09:19:30.919Z,29.90
2018-06-20T09:21:59.360Z,29.80
2018-06-20T09:24:27.732Z,29.20
2018-06-20T09:26:56.305Z,28.60
2018-06-20T09:29:24.743Z,28.50
2018-06-20T09:31:53.147Z,28.70
2018-06-20T09:34:21.527Z,28.80
2018-06-20T09:36:49.932Z,28.60
2018-06-20T09:39:18.316Z,28.40
2018-06-20T09:41:46.711Z,28.30
2018-06-20T09:44:15.096Z,28.30
2018-06-20T09:46:43.492Z,28.90
2018-06-20T09:51:40.003Z,30.90
2018-06-20T09:54:08.391Z,31.40
2018-06-20T09:56:36.807Z,31.80
2018-06-20T09:59:10.621Z,32.10
2018-06-20T10:01:44.523Z,32.60
2018-06-20T10:04:18.426Z,33.30
2018-06-20T10:06:52.105Z,33.20
2018-06-20T10:09:25.842Z,32.30
2018-06-20T10:11:59.672Z,31.50
2018-06-20T10:14:28.107Z,31.50
2018-06-20T10:16:56.503Z,31.70
2018-06-20T10:21:53.044Z,31.30
2018-06-20T10:24:21.423Z,31.00
2018-06-20T10:26:49.823Z,30.80
2018-06-20T10:31:46.359Z,31.60
2018-06-20T10:34:14.787Z,32.20
2018-06-20T10:36:43.168Z,32.20
2018-06-20T10:39:12.033Z,31.50
2018-06-20T10:41:40.832Z,30.80
2018-06-20T10:46:47.022Z,31.00
2018-06-20T10:49:16.672Z,31.30
2018-06-20T10:51:45.449Z,31.50
2018-06-20T10:54:13.883Z,31.90
2018-06-20T10:56:47.666Z,31.80
2018-06-20T10:59:21.503Z,31.30
2018-06-20T11:04:29.018Z,31.80
2018-06-20T11:07:02.874Z,32.10
2018-06-20T11:09:36.664Z,31.90
2018-06-20T11:12:10.389Z,31.50
2018-06-20T11:14:38.815Z,31.80
2018-06-20T11:17:07.276Z,32.10
2018-06-20T11:19:35.683Z,32.50
2018-06-20T11:22:04.131Z,32.70
2018-06-20T11:24:32.527Z,32.80
2018-06-20T11:27:00.948Z,32.80
2018-06-20T11:29:29.347Z,32.80
2018-06-20T11:31:57.771Z,32.80
2018-06-20T11:34:26.286Z,32.90
2018-06-20T11:36:54.717Z,33.30
2018-06-20T11:39:23.176Z,33.60
2018-06-20T11:41:51.544Z,33.60
2018-06-20T11:44:19.962Z,33.80
2018-06-20T11:46:53.824Z,33.60
2018-06-20T11:49:22.253Z,33.80
2018-06-20T11:51:50.656Z,33.80
2018-06-20T11:54:19.070Z,33.30
2018-06-20T11:56:47.479Z,33.10
2018-06-20T11:59:22.070Z,33.00
2018-06-20T12:01:56.274Z,32.70
2018-06-20T12:04:30.000Z,32.30
2018-06-20T12:07:03.615Z,32.20
2018-06-20T12:09:37.410Z,31.40
2018-06-20T12:12:11.120Z,31.40
2018-06-20T12:14:44.864Z,31.60
2018-06-20T12:17:12.468Z,31.80
2018-06-20T12:19:46.312Z,31.90
2018-06-20T12:22:20.125Z,31.80
2018-06-20T12:24:53.938Z,31.60
2018-06-20T12:27:27.640Z,31.60
2018-06-20T12:30:01.527Z,31.70
2018-06-20T12:32:35.327Z,32.00
2018-06-20T12:35:09.167Z,32.30
2018-06-20T12:37:43.008Z,32.40
2018-06-20T12:40:16.899Z,32.30
2018-06-20T12:43:52.472Z,32.10
2018-06-20T12:46:26.518Z,32.00
2018-06-20T12:48:55.340Z,32.40
2018-06-20T12:51:23.728Z,32.30
2018-06-20T12:53:52.140Z,32.20
2018-06-20T12:56:20.525Z,32.10
2018-06-20T12:58:48.923Z,32.40
2018-06-20T13:01:17.303Z,32.60
2018-06-20T13:03:45.777Z,32.60
2018-06-20T13:06:14.372Z,32.60
2018-06-20T13:08:42.794Z,32.30
2018-06-20T13:11:11.189Z,32.10
2018-06-20T13:13:39.577Z,32.30
2018-06-20T13:16:07.996Z,32.50
2018-06-20T13:18:36.376Z,32.60
2018-06-20T13:21:04.804Z,32.90
2018-06-20T13:23:33.196Z,32.60
2018-06-20T13:26:01.611Z,32.60
2018-06-20T13:28:30.000Z,32.40
2018-06-20T13:31:03.724Z,32.20
2018-06-20T13:33:37.367Z,32.30
2018-06-20T13:36:10.962Z,32.50
2018-06-20T13:38:44.774Z,32.60
2018-06-20T13:41:18.663Z,32.60
2018-06-20T13:44:06.634Z,32.80
2018-06-20T13:46:40.248Z,32.80
2018-06-20T13:49:08.635Z,33.00
2018-06-20T13:51:37.053Z,33.00
2018-06-20T13:54:05.947Z,32.60
2018-06-20T13:56:34.356Z,32.50
2018-06-20T13:59:02.750Z,32.30
2018-06-20T14:01:31.163Z,32.20
2018-06-20T14:03:59.587Z,32.10
2018-06-20T14:06:28.039Z,31.90
2018-06-20T14:08:56.443Z,32.00
2018-06-20T14:11:24.908Z,32.30
2018-06-20T14:13:53.292Z,32.50
2018-06-20T14:16:21.720Z,32.60
2018-06-20T14:18:50.132Z,32.60
2018-06-20T14:21:23.870Z,32.40
2018-06-20T14:26:21.264Z,32.10
2018-06-20T14:28:49.663Z,31.80
2018-06-20T14:31:23.512Z,31.80
2018-06-20T14:33:57.163Z,31.80
2018-06-20T14:36:30.843Z,31.90
2018-06-20T14:41:38.104Z,32.30
2018-06-20T14:44:08.475Z,32.40
2018-06-20T14:46:36.920Z,32.30
2018-06-20T14:49:05.330Z,32.20
2018-06-20T14:51:34.748Z,32.10
2018-06-20T14:56:31.259Z,31.90
2018-06-20T14:58:59.653Z,31.70
2018-06-20T15:01:28.087Z,31.60
2018-06-20T15:03:56.629Z,31.50
2018-06-20T15:06:25.119Z,31.50
2018-06-20T15:08:53.533Z,31.50
2018-06-20T15:11:21.967Z,31.50
2018-06-20T15:13:50.384Z,31.50
2018-06-20T15:16:24.204Z,31.50
2018-06-20T15:21:20.720Z,31.40
2018-06-20T15:23:49.120Z,31.30
2018-06-20T15:28:56.392Z,31.30
2018-06-20T15:31:30.260Z,31.20
2018-06-20T15:34:03.991Z,30.90
2018-06-20T15:36:37.644Z,30.60
2018-06-20T15:39:07.733Z,30.50
2018-06-20T15:41:36.183Z,30.60
2018-06-20T15:44:05.492Z,30.50
2018-06-20T15:46:33.923Z,30.50
2018-06-20T15:49:02.331Z,30.40
2018-06-20T15:51:30.758Z,30.30
2018-06-20T15:53:59.169Z,30.10
2018-06-20T15:56:27.595Z,30.10
2018-06-20T15:58:55.984Z,30.00
2018-06-20T16:01:24.381Z,29.80
2018-06-20T16:03:52.849Z,29.70
2018-06-20T16:06:21.263Z,29.60
2018-06-20T16:08:55.020Z,29.60
2018-06-20T16:11:23.443Z,29.50
2018-06-20T16:13:51.880Z,29.60
2018-06-20T16:16:20.299Z,29.70
2018-06-20T16:18:54.086Z,29.60
2018-06-20T16:21:27.855Z,29.60
2018-06-20T16:24:01.617Z,29.60
2018-06-20T16:26:35.420Z,29.70
2018-06-20T16:30:06.833Z,29.70
2018-06-20T16:35:03.593Z,29.30
2018-06-20T16:37:32.079Z,29.20
2018-06-20T16:40:00.463Z,29.20
2018-06-20T16:44:56.979Z,29.30
2018-06-20T16:47:25.380Z,29.30
2018-06-20T16:49:53.797Z,29.20
2018-06-20T16:52:22.241Z,29.20
2018-06-20T16:54:50.656Z,29.10
2018-06-20T16:57:19.088Z,29.00
2018-06-20T16:59:47.539Z,29.00
2018-06-20T17:02:21.308Z,29.10
2018-06-20T17:04:49.751Z,29.10
2018-06-20T17:07:18.909Z,29.10
2018-06-20T17:12:21.699Z,29.10
2018-06-20T17:15:58.392Z,29.00
2018-06-20T17:18:32.204Z,28.90
2018-06-20T17:21:05.895Z,28.70
2018-06-20T17:23:39.611Z,28.60
2018-06-20T17:26:08.047Z,28.50
2018-06-20T17:28:36.471Z,28.50
2018-06-20T17:31:04.876Z,28.40
2018-06-20T17:36:01.401Z,28.30
2018-06-20T17:38:29.845Z,28.20
2018-06-20T17:40:58.272Z,28.20
2018-06-20T17:43:26.712Z,28.30
2018-06-20T17:45:55.120Z,28.40
2018-06-20T17:48:23.517Z,28.40
2018-06-20T17:50:51.940Z,28.40
2018-06-20T17:53:20.341Z,28.40
2018-06-20T17:55:48.767Z,28.40
2018-06-20T17:58:17.187Z,28.40
2018-06-20T18:00:50.871Z,28.30
2018-06-20T18:03:19.255Z,28.20
2018-06-20T18:05:53.175Z,28.20
2018-06-20T18:08:26.926Z,28.10
2018-06-20T18:11:00.794Z,28.10
2018-06-20T18:13:34.572Z,28.00
2018-06-20T18:16:08.375Z,27.80
2018-06-20T18:18:36.757Z,27.70
2018-06-20T18:21:05.166Z,27.70
2018-06-20T18:23:33.561Z,27.60
2018-06-20T18:26:01.976Z,27.50
2018-06-20T18:28:30.357Z,27.40
2018-06-20T18:30:58.767Z,27.30
2018-06-20T18:33:27.160Z,27.30
2018-06-20T18:35:55.575Z,27.20
2018-06-20T18:38:23.968Z,27.10
2018-06-20T18:40:52.539Z,26.90
2018-06-20T18:43:20.935Z,26.70
2018-06-20T18:45:49.316Z,26.50
2018-06-20T18:48:22.975Z,26.20
2018-06-20T18:50:51.363Z,25.90
2018-06-20T18:53:19.771Z,25.70
2018-06-20T18:55:48.143Z,25.40
2018-06-20T18:58:21.851Z,25.10
2018-06-20T19:00:55.774Z,24.90
2018-06-20T19:03:29.552Z,24.70
2018-06-20T19:06:03.404Z,24.40
2018-06-20T19:08:37.136Z,24.30
2018-06-20T19:11:05.658Z,24.10
2018-06-20T19:16:02.221Z,23.90
2018-06-20T19:18:30.628Z,23.90
2018-06-20T19:20:59.020Z,23.80
2018-06-20T19:23:27.423Z,23.70
2018-06-20T19:25:55.808Z,23.50
2018-06-20T19:28:24.208Z,23.40
2018-06-20T19:30:52.683Z,23.20
2018-06-20T19:33:21.098Z,23.00
2018-06-20T19:35:49.504Z,22.90
2018-06-20T19:38:17.932Z,22.70
2018-06-20T19:40:46.351Z,22.60
2018-06-20T19:43:14.778Z,22.30
2018-06-20T19:45:43.184Z,22.20
2018-06-20T19:48:11.890Z,22.00
2018-06-20T19:50:40.279Z,21.90
2018-06-20T19:53:08.700Z,21.80
2018-06-20T19:55:37.119Z,21.80
2018-06-20T19:58:05.612Z,21.60
2018-06-20T20:00:34.019Z,21.60
2018-06-20T20:03:02.429Z,21.50
2018-06-20T20:05:30.863Z,21.40
2018-06-20T20:07:59.254Z,21.30
2018-06-20T20:10:27.679Z,21.10
2018-06-20T20:12:56.142Z,21.10
2018-06-20T20:15:24.533Z,21.00
2018-06-20T20:17:52.928Z,20.90
2018-06-20T20:20:21.361Z,20.70
2018-06-20T20:22:49.760Z,20.50
2018-06-20T20:25:18.175Z,20.40
2018-06-20T20:27:46.592Z,20.30
2018-06-20T20:30:15.012Z,20.20
2018-06-20T20:32:43.412Z,20.10
2018-06-20T20:35:11.834Z,20.10
2018-06-20T20:37:40.231Z,20.10
2018-06-20T20:40:08.928Z,20.00
2018-06-20T20:42:37.328Z,19.90
2018-06-20T20:45:05.822Z,19.90
2018-06-20T20:47:34.248Z,19.80
2018-06-20T20:50:02.663Z,19.80
2018-06-20T20:52:31.085Z,19.80
2018-06-20T20:54:59.490Z,19.70
2018-06-20T20:57:27.940Z,19.70
2018-06-20T20:59:56.343Z,19.70
2018-06-20T21:02:24.836Z,19.60
2018-06-20T21:04:53.243Z,19.50
2018-06-20T21:07:21.692Z,19.50
2018-06-20T21:09:50.093Z,19.40
2018-06-20T21:12:18.519Z,19.30
2018-06-20T21:14:46.920Z,19.10
2018-06-20T21:17:15.336Z,19.10
2018-06-20T21:19:43.728Z,19.00
2018-06-20T21:22:12.156Z,18.90
2018-06-20T21:24:40.553Z,18.80
2018-06-20T21:27:08.963Z,18.70
2018-06-20T21:29:37.360Z,18.60
2018-06-20T21:32:05.814Z,18.60
2018-06-20T21:34:34.235Z,18.60
2018-06-20T21:37:02.641Z,18.60
2018-06-20T21:39:37.773Z,18.60
2018-06-20T21:42:06.211Z,18.60
2018-06-20T21:44:34.619Z,18.60
2018-06-20T21:47:03.021Z,18.50
2018-06-20T21:49:31.448Z,18.50
2018-06-20T21:51:59.853Z,18.50
2018-06-20T21:54:28.288Z,18.50
2018-06-20T21:56:56.692Z,18.30
2018-06-20T21:59:25.108Z,18.10
2018-06-20T22:01:53.512Z,18.00
2018-06-20T22:04:21.932Z,17.90
2018-06-20T22:06:50.325Z,17.90
2018-06-20T22:09:25.136Z,17.80
2018-06-20T22:11:53.520Z,17.80
2018-06-20T22:14:21.927Z,17.70
2018-06-20T22:16:50.324Z,17.50
2018-06-20T22:19:18.727Z,17.40
2018-06-20T22:21:47.113Z,17.30
2018-06-20T22:24:15.528Z,17.20
2018-06-20T22:26:43.907Z,17.30
2018-06-20T22:29:12.304Z,17.30
2018-06-20T22:31:40.712Z,17.40
2018-06-20T22:34:09.108Z,17.40
2018-06-20T22:36:37.511Z,17.40
2018-06-20T22:41:35.320Z,17.40
2018-06-20T22:44:03.979Z,17.40
2018-06-20T22:46:32.415Z,17.40
2018-06-20T22:49:00.809Z,17.30
2018-06-20T22:51:29.223Z,17.10
2018-06-20T22:53:57.710Z,16.90
2018-06-20T22:56:26.132Z,16.80
2018-06-20T22:58:54.519Z,16.70
2018-06-20T23:01:22.929Z,16.70
2018-06-20T23:03:51.365Z,16.70
2018-06-20T23:06:19.790Z,16.70
2018-06-20T23:08:48.193Z,16.70
2018-06-20T23:11:16.657Z,16.70
2018-06-20T23:13:45.065Z,16.60
2018-06-20T23:16:13.481Z,16.60
2018-06-20T23:18:41.879Z,16.70
2018-06-20T23:21:10.280Z,16.70
2018-06-20T23:23:38.714Z,16.60
2018-06-20T23:26:07.107Z,16.60
2018-06-20T23:28:35.523Z,16.60
2018-06-20T23:31:04.772Z,16.50
2018-06-20T23:33:33.193Z,16.40
2018-06-20T23:36:01.839Z,16.20
2018-06-20T23:38:30.271Z,16.00
2018-06-20T23:40:58.680Z,16.00
2018-06-20T23:43:27.108Z,16.00
2018-06-20T23:45:55.520Z,16.00
2018-06-20T23:48:23.952Z,16.10
2018-06-20T23:50:52.352Z,16.10
2018-06-20T23:53:20.776Z,16.20
2018-06-20T23:55:49.175Z,16.20
2018-06-20T23:58:17.601Z,16.30
